»·PEaware :: N6818R KPSP-KUDD

N6818R :: KPSP-KUDD

FLIGHT INFORMATION

Flight Status: Arrived
Operator: Privately registered:
United States
More flights under this callsign
Pilot: John P. (31881)
Aircraft: BEECH AIRCRAFT SUPER KING AIR 350
(B350)
More flights by this aircraft type
Origin: KPSP Palm Springs Intl
United States
Destination: KUDD Bermuda Dunes
United States
More flights between these airports :: More routes between these airports
Route:
File this flight plan on PilotEdge
Remarks:
Altitude:
(Current/Filed)
3,500ft
Speed:
(Current/Filed)
280kts
Departed: 03-Jan-21 04:40 PM
Arrived: 03-Jan-21 04:52 PM
Distance/Time
Traveled:
6706nm/0:12
Distance/Time
To Go:
Arrived

Flight Plot

Page will automatically refresh every two minutes.

Flight plan parsing failed; only flown route is shown


Map Options




Map Legend


Flown Route
Filed Route
Departure Airport
Arrival Airport
Navaid (VOR, NDB)
Fix

Horizontal Profiles

Position Reports

Time Latitude Longitude Heading Altitude Ground
Speed
03-Jan-21 16:16 33.826297 -116.508723 89 435ft 0kts
03-Jan-21 16:17 33.826297 -116.508723 89 435ft 0kts
03-Jan-21 16:18 33.826297 -116.508723 89 435ft 0kts
03-Jan-21 16:19 33.826297 -116.508723 89 435ft 0kts
03-Jan-21 16:20 33.826297 -116.508723 89 435ft 0kts
03-Jan-21 16:21 33.826297 -116.508723 89 435ft 0kts
03-Jan-21 16:22 33.826297 -116.508723 89 435ft 0kts
03-Jan-21 16:23 33.826297 -116.508723 89 435ft 0kts
03-Jan-21 16:24 33.826297 -116.508723 89 435ft 0kts
03-Jan-21 16:25 33.826297 -116.508723 89 435ft 0kts
03-Jan-21 16:26 33.826297 -116.508723 89 435ft 0kts
03-Jan-21 16:27 33.826297 -116.508723 89 435ft 0kts
03-Jan-21 16:28 33.826297 -116.508723 89 435ft 0kts
03-Jan-21 16:29 33.826297 -116.508723 89 435ft 0kts
03-Jan-21 16:30 33.826297 -116.508723 89 435ft 0kts
03-Jan-21 16:31 33.826297 -116.508723 89 435ft 0kts
03-Jan-21 16:32 33.826297 -116.508723 89 435ft 0kts
03-Jan-21 16:33 33.826297 -116.508723 89 435ft 0kts
03-Jan-21 16:34 33.825790 -116.507357 127 432ft 12kts
03-Jan-21 16:35 33.822773 -116.503577 143 416ft 16kts
03-Jan-21 16:36 33.819597 -116.500735 142 409ft 12kts
03-Jan-21 16:37 33.818530 -116.499112 89 403ft 0kts
03-Jan-21 16:38 33.819974 -116.499071 324 405ft 34kts
03-Jan-21 16:39 33.843366 -116.519976 325 923ft 146kts
03-Jan-21 16:40 33.852106 -116.495558 146 2877ft 142kts
03-Jan-21 16:41 33.829435 -116.456736 113 4822ft 151kts
03-Jan-21 16:42 33.805669 -116.401699 118 5472ft 224kts
03-Jan-21 16:43 33.776572 -116.337013 119 3986ft 210kts
03-Jan-21 16:44 33.754112 -116.290087 118 921ft 145kts
03-Jan-21 16:45 33.728993 -116.232538 117 1066ft 221kts
03-Jan-21 16:46 33.755806 -116.188672 332 1189ft 193kts
03-Jan-21 16:47 33.772363 -116.245030 305 1101ft 189kts
03-Jan-21 16:48 33.803083 -116.292854 308 1092ft 175kts
03-Jan-21 16:49 33.791809 -116.338628 202 1108ft 167kts
03-Jan-21 16:50 33.762189 -116.308863 113 619ft 129kts
03-Jan-21 16:51 33.749117 -116.276518 115 70ft 38kts
03-Jan-21 16:52 33.746695 -116.272386 115 57ft 5kts
03-Jan-21 16:53 0.000408 0.013975 0 5ft 0kts
03-Jan-21 16:54 0.000408 0.013975 0 5ft 0kts
03-Jan-21 16:55 0.000408 0.013975 0 5ft 0kts
03-Jan-21 16:56 0.000408 0.013975 0 5ft 0kts
03-Jan-21 16:57 0.000408 0.013975 0 5ft 0kts
03-Jan-21 16:59 0.000408 0.013975 0 5ft 0kts
03-Jan-21 17:00 0.000408 0.013975 0 5ft 0kts
03-Jan-21 17:01 0.000408 0.013975 0 5ft 0kts
03-Jan-21 17:02 0.000408 0.013975 0 5ft 0kts
03-Jan-21 17:03 0.000408 0.013975 0 5ft 0kts
03-Jan-21 17:04 0.000408 0.013975 0 5ft 0kts
03-Jan-21 17:05 0.000408 0.013975 0 5ft 0kts
03-Jan-21 17:06 0.000408 0.013975 0 5ft 0kts
03-Jan-21 17:07 0.000408 0.013975 0 5ft 0kts

Navigation Log

Ident Type
Flight plan parsing failed, navigation log unavailable